createdAt,value
2018-06-10T00:00:58.586Z,12.60
2018-06-10T00:01:58.580Z,12.70
2018-06-10T00:02:58.591Z,13.20
2018-06-10T00:03:58.581Z,13.50
2018-06-10T00:04:58.579Z,13.80
2018-06-10T00:05:58.580Z,12.70
2018-06-10T00:06:58.613Z,12.70
2018-06-10T00:07:58.570Z,12.80
2018-06-10T00:08:58.574Z,12.70
2018-06-10T00:09:58.577Z,12.80
2018-06-10T00:10:58.572Z,13.50
2018-06-10T00:11:58.566Z,13.10
2018-06-10T00:12:58.571Z,13.70
2018-06-10T00:13:58.571Z,12.80
2018-06-10T00:14:58.565Z,13.90
2018-06-10T00:15:58.566Z,16.40
2018-06-10T00:16:58.560Z,14.30
2018-06-10T00:17:58.562Z,12.10
2018-06-10T00:18:58.559Z,16.20
2018-06-10T00:19:58.557Z,14.40
2018-06-10T00:20:58.560Z,12.40
2018-06-10T00:21:58.558Z,13.90
2018-06-10T00:22:58.579Z,13.70
2018-06-10T00:23:58.562Z,13.70
2018-06-10T00:24:58.555Z,12.90
2018-06-10T00:25:58.547Z,12.20
2018-06-10T00:26:58.550Z,13.30
2018-06-10T00:27:58.546Z,12.90
2018-06-10T00:28:58.542Z,13.40
2018-06-10T00:29:58.548Z,13.20
2018-06-10T00:30:58.534Z,17.20
2018-06-10T00:31:58.534Z,13.20
2018-06-10T00:32:58.533Z,13.50
2018-06-10T00:33:58.532Z,13.00
2018-06-10T00:34:58.531Z,13.50
2018-06-10T00:35:58.532Z,13.50
2018-06-10T00:36:58.533Z,15.10
2018-06-10T00:37:58.529Z,14.50
2018-06-10T00:38:58.524Z,13.40
2018-06-10T00:39:58.527Z,13.20
2018-06-10T00:40:58.527Z,13.40
2018-06-10T00:41:58.523Z,15.90
2018-06-10T00:42:58.533Z,15.60
2018-06-10T00:43:58.517Z,13.10
2018-06-10T00:44:58.525Z,14.40
2018-06-10T00:45:58.527Z,13.00
2018-06-10T00:46:58.522Z,12.50
2018-06-10T00:47:58.523Z,13.50
2018-06-10T00:48:58.510Z,12.20
2018-06-10T00:49:58.510Z,13.40
2018-06-10T00:50:58.515Z,13.50
2018-06-10T00:51:58.507Z,13.70
2018-06-10T00:52:58.501Z,14.10
2018-06-10T00:53:58.507Z,13.70
2018-06-10T00:54:58.505Z,15.70
2018-06-10T00:55:58.501Z,16.30
2018-06-10T00:56:58.501Z,13.80
2018-06-10T00:57:58.499Z,16.00
2018-06-10T00:58:58.502Z,13.80
2018-06-10T00:59:58.496Z,13.80
2018-06-10T01:00:58.498Z,14.30
2018-06-10T01:01:58.488Z,14.10
2018-06-10T01:02:58.487Z,13.10
2018-06-10T01:03:58.488Z,17.40
2018-06-10T01:04:58.482Z,13.90
2018-06-10T01:05:58.485Z,14.20
2018-06-10T01:06:58.479Z,14.90
2018-06-10T01:07:58.506Z,19.60
2018-06-10T01:08:58.545Z,15.80
2018-06-10T01:09:58.497Z,18.80
2018-06-10T01:10:58.472Z,20.20
2018-06-10T01:11:58.471Z,19.10
2018-06-10T01:12:58.482Z,19.70
2018-06-10T01:13:58.483Z,19.80
2018-06-10T01:14:58.471Z,18.80
2018-06-10T01:15:58.465Z,16.20
2018-06-10T01:16:58.463Z,18.90
2018-06-10T01:17:58.472Z,17.40
2018-06-10T01:18:58.464Z,18.50
2018-06-10T01:19:58.478Z,17.80
2018-06-10T01:20:58.456Z,18.50
2018-06-10T01:21:58.455Z,15.30
2018-06-10T01:22:58.451Z,14.60
2018-06-10T01:23:58.449Z,15.70
2018-06-10T01:24:58.450Z,17.80
2018-06-10T01:25:58.447Z,14.30
2018-06-10T01:26:58.444Z,18.00
2018-06-10T01:27:58.453Z,15.40
2018-06-10T01:28:58.449Z,14.70
2018-06-10T01:29:58.448Z,15.50
2018-06-10T01:30:58.437Z,15.20
2018-06-10T01:31:58.437Z,15.70
2018-06-10T01:32:58.434Z,13.30
2018-06-10T01:33:58.445Z,15.40
2018-06-10T01:34:58.429Z,13.60
2018-06-10T01:35:58.428Z,14.80
2018-06-10T01:36:58.433Z,14.00
2018-06-10T01:37:58.425Z,15.30
2018-06-10T01:38:58.422Z,14.60
2018-06-10T01:39:58.426Z,14.10
2018-06-10T01:40:58.421Z,13.90
2018-06-10T01:41:58.416Z,14.20
2018-06-10T01:42:58.413Z,15.20
2018-06-10T01:43:58.411Z,14.30
2018-06-10T01:44:58.416Z,15.20
2018-06-10T01:45:58.412Z,14.30
2018-06-10T01:46:58.409Z,17.20
2018-06-10T01:47:58.405Z,17.10
2018-06-10T01:48:58.470Z,17.20
2018-06-10T01:49:58.402Z,15.80
2018-06-10T01:50:58.416Z,15.40
2018-06-10T01:51:58.403Z,13.60
2018-06-10T01:52:58.409Z,16.20
2018-06-10T01:53:58.395Z,15.30
2018-06-10T01:54:58.482Z,13.50
2018-06-10T01:55:58.398Z,13.50
2018-06-10T01:56:58.388Z,13.80
2018-06-10T01:57:58.384Z,18.20
2018-06-10T01:58:58.388Z,16.30
2018-06-10T01:59:58.384Z,14.80
2018-06-10T02:00:58.378Z,15.20
2018-06-10T02:01:58.384Z,14.90
2018-06-10T02:02:58.380Z,14.10
2018-06-10T02:03:58.377Z,12.90
2018-06-10T02:04:58.450Z,14.30
2018-06-10T02:05:58.374Z,14.30
2018-06-10T02:06:58.368Z,12.30
2018-06-10T02:07:58.366Z,12.50
2018-06-10T02:08:58.365Z,12.40
2018-06-10T02:09:58.381Z,12.60
2018-06-10T02:10:58.361Z,12.00
2018-06-10T02:11:58.362Z,15.00
2018-06-10T02:12:58.369Z,12.40
2018-06-10T02:13:58.360Z,14.00
2018-06-10T02:14:58.353Z,13.00
2018-06-10T02:15:58.351Z,12.90
2018-06-10T02:16:58.361Z,12.60
2018-06-10T02:17:58.434Z,12.30
2018-06-10T02:18:58.351Z,15.30
2018-06-10T02:19:58.351Z,12.70
2018-06-10T02:20:58.339Z,12.60
2018-06-10T02:21:58.391Z,12.60
2018-06-10T02:22:58.350Z,12.30
2018-06-10T02:23:58.339Z,13.40
2018-06-10T02:24:58.332Z,14.20
2018-06-10T02:25:58.334Z,12.40
2018-06-10T02:26:58.330Z,12.30
2018-06-10T02:27:58.409Z,12.10
2018-06-10T02:28:58.326Z,11.60
2018-06-10T02:29:58.321Z,12.30
2018-06-10T02:30:58.327Z,11.30
2018-06-10T02:31:58.322Z,14.00
2018-06-10T02:32:58.316Z,11.80
2018-06-10T02:33:58.317Z,12.00
2018-06-10T02:34:58.314Z,11.70
2018-06-10T02:35:58.309Z,12.40
2018-06-10T02:36:58.312Z,12.60
2018-06-10T02:37:58.313Z,13.20
2018-06-10T02:38:58.311Z,12.30
2018-06-10T02:39:58.310Z,13.40
2018-06-10T02:40:58.308Z,14.40
2018-06-10T02:41:58.304Z,12.50
2018-06-10T02:42:58.313Z,11.50
2018-06-10T02:43:58.294Z,12.10
2018-06-10T02:44:58.290Z,13.40
2018-06-10T02:45:58.296Z,12.10
2018-06-10T02:46:58.287Z,11.90
2018-06-10T02:47:58.284Z,11.50
2018-06-10T02:48:58.292Z,13.10
2018-06-10T02:49:58.292Z,12.00
2018-06-10T02:50:58.295Z,15.30
2018-06-10T02:51:58.299Z,12.30
2018-06-10T02:52:58.307Z,13.80
2018-06-10T02:53:58.274Z,11.50
2018-06-10T02:54:58.272Z,12.30
2018-06-10T02:55:58.268Z,12.40
2018-06-10T02:56:58.267Z,13.20
2018-06-10T02:57:58.265Z,12.20
2018-06-10T02:58:58.263Z,14.10
2018-06-10T02:59:58.273Z,13.40
2018-06-10T03:00:58.328Z,12.50
2018-06-10T03:01:58.260Z,13.30
2018-06-10T03:02:58.255Z,12.10
2018-06-10T03:03:58.257Z,12.10
2018-06-10T03:04:58.256Z,13.50
2018-06-10T03:05:58.262Z,13.10
2018-06-10T03:06:58.247Z,13.30
2018-06-10T03:07:58.326Z,16.30
2018-06-10T03:08:58.242Z,13.00
2018-06-10T03:09:58.248Z,13.80
2018-06-10T03:10:58.238Z,16.10
2018-06-10T03:11:58.244Z,14.50
2018-06-10T03:12:58.231Z,14.60
2018-06-10T03:13:58.230Z,14.90
2018-06-10T03:14:58.234Z,14.20
2018-06-10T03:15:58.231Z,15.50
2018-06-10T03:16:58.225Z,15.40
2018-06-10T03:17:58.226Z,15.20
2018-06-10T03:18:58.223Z,14.70
2018-06-10T03:19:58.215Z,16.60
2018-06-10T03:20:58.213Z,15.00
2018-06-10T03:21:58.223Z,14.30
2018-06-10T03:22:58.212Z,15.80
2018-06-10T03:23:58.284Z,15.80
2018-06-10T03:24:58.215Z,14.60
2018-06-10T03:25:58.205Z,15.30
2018-06-10T03:26:58.200Z,17.10
2018-06-10T03:27:58.232Z,19.00
2018-06-10T03:28:58.197Z,19.30
2018-06-10T03:29:58.204Z,19.10
2018-06-10T03:30:58.209Z,18.10
2018-06-10T03:31:58.195Z,18.20
2018-06-10T03:32:58.210Z,19.80
2018-06-10T03:33:58.255Z,20.60
2018-06-10T03:34:58.184Z,17.90
2018-06-10T03:35:58.189Z,17.50
2018-06-10T03:36:58.179Z,19.90
2018-06-10T03:37:58.182Z,22.30
2018-06-10T03:38:58.188Z,19.70
2018-06-10T03:39:58.170Z,18.00
2018-06-10T03:40:58.170Z,16.20
2018-06-10T03:41:58.166Z,20.20
2018-06-10T03:42:58.170Z,19.10
2018-06-10T03:43:58.225Z,18.00
2018-06-10T03:44:58.159Z,21.10
2018-06-10T03:45:58.156Z,22.60
2018-06-10T03:46:58.239Z,19.00
2018-06-10T03:47:58.152Z,19.40
2018-06-10T03:48:58.149Z,19.90
2018-06-10T03:49:58.146Z,22.20
2018-06-10T03:50:58.152Z,19.30
2018-06-10T03:51:58.145Z,21.60
2018-06-10T03:52:58.139Z,19.60
2018-06-10T03:53:58.137Z,23.50
2018-06-10T03:54:58.139Z,21.40
2018-06-10T03:55:58.139Z,27.50
2018-06-10T03:56:58.132Z,21.10
2018-06-10T03:57:58.126Z,23.00
2018-06-10T03:58:58.125Z,24.50
2018-06-10T03:59:58.124Z,22.90
2018-06-10T04:00:58.127Z,21.50
2018-06-10T04:01:58.118Z,24.90
2018-06-10T04:02:58.126Z,20.70
2018-06-10T04:03:58.123Z,21.60
2018-06-10T04:04:58.126Z,26.40
2018-06-10T04:05:58.109Z,21.30
2018-06-10T04:06:58.173Z,24.50
2018-06-10T04:07:58.109Z,23.90
2018-06-10T04:08:58.116Z,25.20
2018-06-10T04:09:58.106Z,30.00
2018-06-10T04:10:58.103Z,22.80
2018-06-10T04:11:58.092Z,22.90
2018-06-10T04:12:58.093Z,23.90
2018-06-10T04:13:58.089Z,21.80
2018-06-10T04:14:58.085Z,20.40
2018-06-10T04:15:58.098Z,23.00
2018-06-10T04:16:58.141Z,24.60
2018-06-10T04:17:58.090Z,24.90
2018-06-10T04:18:58.079Z,21.10
2018-06-10T04:19:58.074Z,27.00
2018-06-10T04:20:58.078Z,27.30
2018-06-10T04:21:58.077Z,26.80
2018-06-10T04:22:58.078Z,26.90
2018-06-10T04:23:58.067Z,25.50
2018-06-10T04:24:58.072Z,31.40
2018-06-10T04:25:58.069Z,22.90
2018-06-10T04:26:58.110Z,23.80
2018-06-10T04:27:58.070Z,20.40
2018-06-10T04:28:58.058Z,21.70
2018-06-10T04:29:58.052Z,19.20
2018-06-10T04:30:58.052Z,21.80
2018-06-10T04:31:58.054Z,21.80
2018-06-10T04:32:58.046Z,20.50
2018-06-10T04:33:58.044Z,22.30
2018-06-10T04:34:58.061Z,22.90
2018-06-10T04:35:58.060Z,23.50
2018-06-10T04:36:58.044Z,28.00
2018-06-10T04:37:58.040Z,25.00
2018-06-10T04:38:58.033Z,25.10
2018-06-10T04:39:58.031Z,22.00
2018-06-10T04:40:58.044Z,22.70
2018-06-10T04:41:58.030Z,24.00
2018-06-10T04:42:58.028Z,20.90
2018-06-10T04:43:58.027Z,22.60
2018-06-10T04:44:58.034Z,22.50
2018-06-10T04:45:58.027Z,28.10
2018-06-10T04:46:58.035Z,24.20
2018-06-10T04:47:58.029Z,22.10
2018-06-10T04:48:58.030Z,20.30
2018-06-10T04:49:58.064Z,20.00
2018-06-10T04:50:58.026Z,21.50
2018-06-10T04:51:58.023Z,25.80
2018-06-10T04:52:58.088Z,17.90
2018-06-10T04:53:58.024Z,19.10
2018-06-10T04:54:58.031Z,19.30
2018-06-10T04:55:58.023Z,20.50
2018-06-10T04:56:58.028Z,23.90
2018-06-10T04:57:58.027Z,20.00
2018-06-10T04:58:58.035Z,20.70
2018-06-10T04:59:58.038Z,21.70
2018-06-10T05:00:58.029Z,23.00
2018-06-10T05:01:58.025Z,23.00
2018-06-10T05:02:58.034Z,20.30
2018-06-10T05:03:58.027Z,20.10
2018-06-10T05:04:58.026Z,18.80
2018-06-10T05:05:58.074Z,19.90
2018-06-10T05:06:58.026Z,19.40
2018-06-10T05:07:58.025Z,21.30
2018-06-10T05:08:58.033Z,21.80
2018-06-10T05:09:58.023Z,19.90
2018-06-10T05:10:58.038Z,21.20
2018-06-10T05:11:58.030Z,21.80
2018-06-10T05:12:58.023Z,22.20
2018-06-10T05:13:58.033Z,21.70
2018-06-10T05:14:58.029Z,23.80
2018-06-10T05:15:58.023Z,23.90
2018-06-10T05:16:58.025Z,19.20
2018-06-10T05:17:58.034Z,23.80
2018-06-10T05:18:58.065Z,18.50
2018-06-10T05:19:58.062Z,19.50
2018-06-10T05:20:58.022Z,18.80
2018-06-10T05:21:58.065Z,22.50
2018-06-10T05:22:58.022Z,20.30
2018-06-10T05:23:58.019Z,18.80
2018-06-10T05:24:58.028Z,18.60
2018-06-10T05:25:58.015Z,21.60
2018-06-10T05:26:58.079Z,18.90
2018-06-10T05:27:58.013Z,22.00
2018-06-10T05:28:58.015Z,20.50
2018-06-10T05:29:58.021Z,21.70
2018-06-10T05:30:58.013Z,20.00
2018-06-10T05:31:58.015Z,19.70
2018-06-10T05:32:58.011Z,18.30
2018-06-10T05:33:58.011Z,17.00
2018-06-10T05:34:58.016Z,16.20
2018-06-10T05:35:58.009Z,16.00
2018-06-10T05:36:58.012Z,15.10
2018-06-10T05:37:58.008Z,17.30
2018-06-10T05:38:58.010Z,16.20
2018-06-10T05:39:58.015Z,15.90
2018-06-10T05:40:58.009Z,16.00
2018-06-10T05:41:58.013Z,15.90
2018-06-10T05:42:58.009Z,16.90
2018-06-10T05:43:58.006Z,15.90
2018-06-10T05:44:58.040Z,15.30
2018-06-10T05:45:58.017Z,16.60
2018-06-10T05:46:58.009Z,16.50
2018-06-10T05:47:58.005Z,16.10
2018-06-10T05:48:58.009Z,15.40
2018-06-10T05:49:58.006Z,14.20
2018-06-10T05:50:58.008Z,15.10
2018-06-10T05:51:58.007Z,15.80
2018-06-10T05:52:58.011Z,15.70
2018-06-10T05:53:58.009Z,14.80
2018-06-10T05:54:58.016Z,16.70
2018-06-10T05:55:58.014Z,15.70
2018-06-10T05:56:58.034Z,16.10
2018-06-10T05:57:58.022Z,15.40
2018-06-10T05:58:58.015Z,15.50
2018-06-10T05:59:58.012Z,16.20
2018-06-10T06:00:58.016Z,17.40
2018-06-10T06:01:58.021Z,15.70
2018-06-10T06:02:58.019Z,15.90
2018-06-10T06:03:58.020Z,15.90
2018-06-10T06:04:58.012Z,16.00
2018-06-10T06:05:58.012Z,15.20
2018-06-10T06:06:58.016Z,16.20
2018-06-10T06:07:58.031Z,15.30
2018-06-10T06:08:58.015Z,16.30
2018-06-10T06:09:58.015Z,15.10
2018-06-10T06:10:58.015Z,13.60
2018-06-10T06:11:58.017Z,14.70
2018-06-10T06:12:58.021Z,14.40
2018-06-10T06:13:58.017Z,16.20
2018-06-10T06:14:58.017Z,16.50
2018-06-10T06:15:58.016Z,16.40
2018-06-10T06:16:58.015Z,15.30
2018-06-10T06:17:58.023Z,13.70
2018-06-10T06:18:58.037Z,14.30
2018-06-10T06:19:58.026Z,14.30
2018-06-10T06:20:58.027Z,14.30
2018-06-10T06:21:58.028Z,14.70
2018-06-10T06:22:58.018Z,13.70
2018-06-10T06:23:58.022Z,13.10
2018-06-10T06:24:58.019Z,12.90
2018-06-10T06:25:58.022Z,13.10
2018-06-10T06:26:58.030Z,13.10
2018-06-10T06:27:58.026Z,13.80
2018-06-10T06:28:58.024Z,12.50
2018-06-10T06:29:58.030Z,14.50
2018-06-10T06:30:58.024Z,14.50
2018-06-10T06:31:58.033Z,14.40
2018-06-10T06:32:58.026Z,14.40
2018-06-10T06:33:58.026Z,14.40
2018-06-10T06:34:58.029Z,13.90
2018-06-10T06:35:58.037Z,13.80
2018-06-10T06:36:58.041Z,14.00
2018-06-10T06:37:58.371Z,15.50
2018-06-10T06:38:58.065Z,16.20
2018-06-10T06:39:58.031Z,15.20
2018-06-10T06:40:58.046Z,15.00
2018-06-10T06:41:58.191Z,14.20
2018-06-10T06:42:58.038Z,15.50
2018-06-10T06:43:58.034Z,14.10
2018-06-10T06:44:58.047Z,14.30
2018-06-10T06:45:58.037Z,15.50
2018-06-10T06:46:58.035Z,15.30
2018-06-10T06:47:58.037Z,14.70
2018-06-10T06:48:58.046Z,14.90
2018-06-10T06:49:58.040Z,13.40
2018-06-10T06:50:58.046Z,15.00
2018-06-10T06:51:58.044Z,14.70
2018-06-10T06:52:58.047Z,14.30
2018-06-10T06:53:58.043Z,14.60
2018-06-10T06:54:58.051Z,14.30
2018-06-10T06:55:58.049Z,13.70
2018-06-10T06:56:58.050Z,14.30
2018-06-10T06:57:58.095Z,14.40
2018-06-10T06:58:58.058Z,13.60
2018-06-10T06:59:58.070Z,13.70
2018-06-10T07:00:58.066Z,13.00
2018-06-10T07:01:58.068Z,13.10
2018-06-10T07:02:58.059Z,13.20
2018-06-10T07:03:58.066Z,13.10
2018-06-10T07:04:58.069Z,15.70
2018-06-10T07:05:58.062Z,12.80
2018-06-10T07:06:58.074Z,12.40
2018-06-10T07:07:58.075Z,13.30
2018-06-10T07:08:58.069Z,14.80
2018-06-10T07:09:58.069Z,13.60
2018-06-10T07:10:58.076Z,11.80
2018-06-10T07:11:58.108Z,11.10
2018-06-10T07:12:58.082Z,11.70
2018-06-10T07:13:58.076Z,11.10
2018-06-10T07:14:58.079Z,10.80
2018-06-10T07:15:58.089Z,10.50
2018-06-10T07:16:58.085Z,11.00
2018-06-10T07:17:58.089Z,13.90
2018-06-10T07:18:58.088Z,12.00
2018-06-10T07:19:58.116Z,10.30
2018-06-10T07:20:58.094Z,10.20
2018-06-10T07:21:58.093Z,11.10
2018-06-10T07:22:58.116Z,9.50
2018-06-10T07:23:58.095Z,8.80
2018-06-10T07:24:58.100Z,8.60
2018-06-10T07:25:58.110Z,8.50
2018-06-10T07:26:58.101Z,9.90
2018-06-10T07:27:58.103Z,9.20
2018-06-10T07:28:58.106Z,8.20
2018-06-10T07:29:58.108Z,8.20
2018-06-10T07:30:58.109Z,8.10
2018-06-10T07:31:58.114Z,7.50
2018-06-10T07:32:58.124Z,10.00
2018-06-10T07:33:58.117Z,8.80
2018-06-10T07:34:58.119Z,10.40
2018-06-10T07:35:58.126Z,7.20
2018-06-10T07:36:58.133Z,7.10
2018-06-10T07:37:58.134Z,7.50
2018-06-10T07:38:58.128Z,7.70
2018-06-10T07:39:58.131Z,13.20
2018-06-10T07:40:58.139Z,7.00
2018-06-10T07:41:58.142Z,11.80
2018-06-10T07:42:58.152Z,8.80
2018-06-10T07:43:58.140Z,6.20
2018-06-10T07:44:58.145Z,6.80
2018-06-10T07:45:58.151Z,6.50
2018-06-10T07:46:58.152Z,7.10
2018-06-10T07:47:58.154Z,6.80
2018-06-10T07:48:58.157Z,6.60
2018-06-10T07:49:58.164Z,6.80
2018-06-10T07:50:58.159Z,7.70
2018-06-10T07:51:58.171Z,6.30
2018-06-10T07:52:58.164Z,7.30
2018-06-10T07:53:58.170Z,7.80
2018-06-10T07:54:58.175Z,7.30
2018-06-10T07:55:58.171Z,7.30
2018-06-10T07:56:58.175Z,6.80
2018-06-10T07:57:58.179Z,7.70
2018-06-10T07:58:58.181Z,6.30
2018-06-10T07:59:58.183Z,7.30
2018-06-10T08:00:58.190Z,8.20
2018-06-10T08:01:58.189Z,7.60
2018-06-10T08:02:58.197Z,6.80
2018-06-10T08:03:58.202Z,9.60
2018-06-10T08:04:58.209Z,7.80
2018-06-10T08:05:58.209Z,8.00
2018-06-10T08:06:58.220Z,6.40
2018-06-10T08:07:58.215Z,8.10
2018-06-10T08:08:58.215Z,9.80
2018-06-10T08:09:58.225Z,7.10
2018-06-10T08:10:58.222Z,8.00
2018-06-10T08:11:58.225Z,8.20
2018-06-10T08:12:58.229Z,7.50
2018-06-10T08:13:58.230Z,7.30
2018-06-10T08:14:58.231Z,7.70
2018-06-10T08:15:58.232Z,7.40
2018-06-10T08:16:58.236Z,7.30
2018-06-10T08:17:58.244Z,7.80
2018-06-10T08:18:58.242Z,6.10
2018-06-10T08:19:58.249Z,7.30
2018-06-10T08:20:58.250Z,8.30
2018-06-10T08:21:58.252Z,6.80
2018-06-10T08:22:58.265Z,6.90
2018-06-10T08:23:58.267Z,6.60
2018-06-10T08:24:58.272Z,7.10
2018-06-10T08:25:58.273Z,6.90
2018-06-10T08:26:58.281Z,6.40
2018-06-10T08:27:58.285Z,8.80
2018-06-10T08:28:58.275Z,9.20
2018-06-10T08:29:58.281Z,6.20
2018-06-10T08:30:58.293Z,6.80
2018-06-10T08:31:58.328Z,6.70
2018-06-10T08:32:58.292Z,9.60
2018-06-10T08:33:58.296Z,9.00
2018-06-10T08:34:58.296Z,6.90
2018-06-10T08:35:58.302Z,6.60
2018-06-10T08:36:58.310Z,7.00
2018-06-10T08:37:58.308Z,6.60
2018-06-10T08:38:58.312Z,6.10
2018-06-10T08:39:58.314Z,6.10
2018-06-10T08:40:58.326Z,7.50
2018-06-10T08:41:58.323Z,7.70
2018-06-10T08:42:58.334Z,6.30
2018-06-10T08:43:58.409Z,6.00
2018-06-10T08:44:58.337Z,6.90
2018-06-10T08:45:58.341Z,5.80
2018-06-10T08:46:58.344Z,6.90
2018-06-10T08:47:58.344Z,8.20
2018-06-10T08:48:58.347Z,6.30
2018-06-10T08:49:58.357Z,14.70
2018-06-10T08:50:58.356Z,13.60
2018-06-10T08:51:58.367Z,10.70
2018-06-10T08:52:58.370Z,6.30
2018-06-10T08:53:58.367Z,6.40
2018-06-10T08:54:58.373Z,7.20
2018-06-10T08:55:58.373Z,7.00
2018-06-10T08:56:58.436Z,6.20
2018-06-10T08:57:58.390Z,6.30
2018-06-10T08:58:58.388Z,7.00
2018-06-10T08:59:58.405Z,5.70
2018-06-10T09:00:58.404Z,5.30
2018-06-10T09:01:58.413Z,5.60
2018-06-10T09:02:58.403Z,7.20
2018-06-10T09:03:58.407Z,6.80
2018-06-10T09:04:58.414Z,6.10
2018-06-10T09:05:58.423Z,5.70
2018-06-10T09:06:58.422Z,6.20
2018-06-10T09:07:58.436Z,6.60
2018-06-10T09:08:58.443Z,7.90
2018-06-10T09:09:58.441Z,5.70
2018-06-10T09:10:58.439Z,6.10
2018-06-10T09:11:58.441Z,7.80
2018-06-10T09:12:58.446Z,5.60
2018-06-10T09:13:58.452Z,6.20
2018-06-10T09:14:58.452Z,5.90
2018-06-10T09:15:58.459Z,8.20
2018-06-10T09:16:58.456Z,6.00
2018-06-10T09:17:58.462Z,5.60
2018-06-10T09:18:58.465Z,6.50
2018-06-10T09:19:58.473Z,6.70
2018-06-10T09:20:58.487Z,5.00
2018-06-10T09:21:58.488Z,5.00
2018-06-10T09:22:58.487Z,5.60
2018-06-10T09:23:58.496Z,5.40
2018-06-10T09:24:58.505Z,8.50
2018-06-10T09:25:58.496Z,4.90
2018-06-10T09:26:58.502Z,5.30
2018-06-10T09:27:58.507Z,5.70
2018-06-10T09:28:58.509Z,5.10
2018-06-10T09:29:58.513Z,5.40
2018-06-10T09:30:58.532Z,4.90
2018-06-10T09:31:58.521Z,6.10
2018-06-10T09:32:58.527Z,4.90
2018-06-10T09:33:58.537Z,4.80
2018-06-10T09:34:58.540Z,5.20
2018-06-10T09:35:58.546Z,5.00
2018-06-10T09:36:58.542Z,6.00
2018-06-10T09:37:58.550Z,6.00
2018-06-10T09:38:58.552Z,9.10
2018-06-10T09:39:58.560Z,5.20
2018-06-10T09:40:58.568Z,5.70
2018-06-10T09:41:58.614Z,5.50
2018-06-10T09:42:58.568Z,5.10
2018-06-10T09:43:58.573Z,5.90
2018-06-10T09:44:58.586Z,6.70
2018-06-10T09:45:58.592Z,5.50
2018-06-10T09:46:58.598Z,6.90
2018-06-10T09:47:58.599Z,5.30
2018-06-10T09:48:58.595Z,5.00
2018-06-10T09:49:58.646Z,5.30
2018-06-10T09:50:58.613Z,5.10
2018-06-10T09:51:58.608Z,5.10
2018-06-10T09:52:58.614Z,5.20
2018-06-10T09:53:58.620Z,5.30
2018-06-10T09:54:58.630Z,4.70
2018-06-10T09:55:58.630Z,6.20
2018-06-10T09:56:58.632Z,5.10
2018-06-10T09:57:58.646Z,4.80
2018-06-10T09:58:58.643Z,4.60
2018-06-10T09:59:58.658Z,5.80
2018-06-10T10:00:58.654Z,6.90
2018-06-10T10:01:58.662Z,7.10
2018-06-10T10:02:58.677Z,5.90
2018-06-10T10:03:58.666Z,5.80
2018-06-10T10:04:58.676Z,5.10
2018-06-10T10:05:58.680Z,5.30
2018-06-10T10:06:58.681Z,5.70
2018-06-10T10:07:58.695Z,5.80
2018-06-10T10:08:58.698Z,5.90
2018-06-10T10:09:58.694Z,4.90
2018-06-10T10:10:58.701Z,5.40
2018-06-10T10:11:58.732Z,6.10
2018-06-10T10:12:58.726Z,4.70
2018-06-10T10:13:58.719Z,4.10
2018-06-10T10:14:58.720Z,4.10
2018-06-10T10:15:58.721Z,4.10
2018-06-10T10:16:58.726Z,4.20
2018-06-10T10:17:58.732Z,4.00
2018-06-10T10:18:58.743Z,5.00
2018-06-10T10:19:58.754Z,5.30
2018-06-10T10:20:58.758Z,4.50
2018-06-10T10:21:58.759Z,4.00
2018-06-10T10:22:58.769Z,3.80
2018-06-10T10:23:58.761Z,6.30
2018-06-10T10:24:58.765Z,4.10
2018-06-10T10:25:58.771Z,4.00
2018-06-10T10:26:58.776Z,4.20
2018-06-10T10:27:58.779Z,4.00
2018-06-10T10:28:58.793Z,4.40
2018-06-10T10:29:58.791Z,4.30
2018-06-10T10:30:58.813Z,4.30
2018-06-10T10:31:58.872Z,3.80
2018-06-10T10:32:58.822Z,4.60
2018-06-10T10:33:58.816Z,4.60
2018-06-10T10:34:58.812Z,5.40
2018-06-10T10:35:58.817Z,4.70
2018-06-10T10:36:58.833Z,4.70
2018-06-10T10:37:58.833Z,4.60
2018-06-10T10:38:58.847Z,4.70
2018-06-10T10:39:58.838Z,4.80
2018-06-10T10:40:58.843Z,5.50
2018-06-10T10:41:58.862Z,4.40
2018-06-10T10:42:58.850Z,4.30
2018-06-10T10:43:58.868Z,4.80
2018-06-10T10:44:58.873Z,5.00
2018-06-10T10:45:58.872Z,3.90
2018-06-10T10:46:58.872Z,4.00
2018-06-10T10:47:58.872Z,5.30
2018-06-10T10:48:58.930Z,4.10
2018-06-10T10:49:58.884Z,5.10
2018-06-10T10:50:58.899Z,4.10
2018-06-10T10:51:58.891Z,4.30
2018-06-10T10:52:58.904Z,4.20
2018-06-10T10:53:58.905Z,5.00
2018-06-10T10:54:58.903Z,4.40
2018-06-10T10:55:58.978Z,4.20
2018-06-10T10:56:58.913Z,4.50
2018-06-10T10:57:58.921Z,4.30
2018-06-10T10:58:58.924Z,4.10
2018-06-10T10:59:58.925Z,5.50
2018-06-10T11:00:58.930Z,5.90
2018-06-10T11:01:59.033Z,4.20
2018-06-10T11:02:58.945Z,4.70
2018-06-10T11:03:58.942Z,5.10
2018-06-10T11:04:58.947Z,4.50
2018-06-10T11:05:58.955Z,4.30
2018-06-10T11:06:58.970Z,4.00
2018-06-10T11:07:58.974Z,5.30
2018-06-10T11:08:58.966Z,4.60
2018-06-10T11:09:58.971Z,3.60
2018-06-10T11:10:58.976Z,3.90
2018-06-10T11:11:58.980Z,4.80
2018-06-10T11:12:58.984Z,4.30
2018-06-10T11:13:58.988Z,4.60
2018-06-10T11:14:59.090Z,4.80
2018-06-10T11:15:59.029Z,5.00
2018-06-10T11:16:59.003Z,4.80
2018-06-10T11:17:59.017Z,5.40
2018-06-10T11:18:59.012Z,4.00
2018-06-10T11:19:59.023Z,3.80
2018-06-10T11:20:59.028Z,3.80
2018-06-10T11:21:59.028Z,3.80
2018-06-10T11:22:59.045Z,4.40
2018-06-10T11:23:59.049Z,3.60
2018-06-10T11:24:59.042Z,3.40
2018-06-10T11:25:59.055Z,3.40
2018-06-10T11:26:59.093Z,3.40
2018-06-10T11:27:59.059Z,4.60
2018-06-10T11:28:59.062Z,4.30
2018-06-10T11:29:59.078Z,3.50
2018-06-10T11:30:59.072Z,3.20
2018-06-10T11:31:59.083Z,3.90
2018-06-10T11:32:59.089Z,3.80
2018-06-10T11:33:59.087Z,5.50
2018-06-10T11:34:59.106Z,4.40
2018-06-10T11:35:59.097Z,4.70
2018-06-10T11:36:59.115Z,3.20
2018-06-10T11:37:59.126Z,4.50
2018-06-10T11:38:59.121Z,3.40
2018-06-10T11:39:59.117Z,3.70
2018-06-10T11:40:59.121Z,3.30
2018-06-10T11:41:59.125Z,3.50
2018-06-10T11:42:59.130Z,4.80
2018-06-10T11:43:59.148Z,3.80
2018-06-10T11:44:59.138Z,4.50
2018-06-10T11:45:59.142Z,3.60
2018-06-10T11:46:59.156Z,3.60
2018-06-10T11:47:59.155Z,5.60
2018-06-10T11:48:59.187Z,3.60
2018-06-10T11:49:59.170Z,6.30
2018-06-10T11:50:59.166Z,6.50
2018-06-10T11:51:59.202Z,4.20
2018-06-10T11:52:59.186Z,7.50
2018-06-10T11:53:59.179Z,4.20
2018-06-10T11:54:59.184Z,3.80
2018-06-10T11:55:59.189Z,4.40
2018-06-10T11:56:59.214Z,5.30
2018-06-10T11:57:59.283Z,4.60
2018-06-10T11:58:59.236Z,3.80
2018-06-10T11:59:59.207Z,3.50
2018-06-10T12:00:59.221Z,5.20
2018-06-10T12:01:59.270Z,3.10
2018-06-10T12:02:59.232Z,3.20
2018-06-10T12:03:59.228Z,4.50
2018-06-10T12:04:59.239Z,3.90
2018-06-10T12:05:59.230Z,5.00
2018-06-10T12:06:59.235Z,4.00
2018-06-10T12:07:59.249Z,4.00
2018-06-10T12:08:59.244Z,5.60
2018-06-10T12:09:59.248Z,3.70
2018-06-10T12:10:59.251Z,3.00
2018-06-10T12:11:59.263Z,2.80
2018-06-10T12:12:59.263Z,3.50
2018-06-10T12:13:59.266Z,3.00
2018-06-10T12:14:59.281Z,2.90
2018-06-10T12:15:59.276Z,5.90
2018-06-10T12:16:59.288Z,3.30
2018-06-10T12:17:59.293Z,2.80
2018-06-10T12:18:59.298Z,2.70
2018-06-10T12:19:59.291Z,2.70
2018-06-10T12:20:59.309Z,4.00
2018-06-10T12:21:59.302Z,2.60
2018-06-10T12:22:59.317Z,2.50
2018-06-10T12:23:59.315Z,2.30
2018-06-10T12:24:59.316Z,3.30
2018-06-10T12:25:59.329Z,2.40
2018-06-10T12:26:59.333Z,2.10
2018-06-10T12:27:59.338Z,3.10
2018-06-10T12:28:59.335Z,3.10
2018-06-10T12:29:59.341Z,3.40
2018-06-10T12:30:59.346Z,4.10
2018-06-10T12:31:59.350Z,3.30
2018-06-10T12:32:59.359Z,3.30
2018-06-10T12:33:59.363Z,2.90
2018-06-10T12:34:59.363Z,3.40
2018-06-10T12:35:59.373Z,3.70
2018-06-10T12:36:59.373Z,2.80
2018-06-10T12:37:59.378Z,4.30
2018-06-10T12:38:59.390Z,3.40
2018-06-10T12:39:59.391Z,3.00
2018-06-10T12:40:59.423Z,2.60
2018-06-10T12:41:59.422Z,2.70
2018-06-10T12:42:59.413Z,3.00
2018-06-10T12:43:59.409Z,4.50
2018-06-10T12:44:59.418Z,2.60
2018-06-10T12:45:59.434Z,3.40
2018-06-10T12:46:59.433Z,3.30
2018-06-10T12:47:59.436Z,3.80
2018-06-10T12:48:59.434Z,5.00
2018-06-10T12:49:59.439Z,3.00
2018-06-10T12:50:59.453Z,2.90
2018-06-10T12:51:59.448Z,3.30
2018-06-10T12:52:59.453Z,3.80
2018-06-10T12:53:59.459Z,2.80
2018-06-10T12:54:59.470Z,3.90
2018-06-10T12:55:59.471Z,2.50
2018-06-10T12:56:59.503Z,4.80
2018-06-10T12:57:59.486Z,3.30
2018-06-10T12:58:59.486Z,3.20
2018-06-10T12:59:59.493Z,2.30
2018-06-10T13:00:59.497Z,4.80
2018-06-10T13:01:59.504Z,4.80
2018-06-10T13:02:59.518Z,2.50
2018-06-10T13:03:59.529Z,3.90